sensor_id;sensor_type;location;lat;lon;timestamp;P1;durP1;ratioP1;P2;durP2;ratioP2
16775;SDS011;8505;49.456;8.164;2023-04-16T00:00:47;16.40;;;12.25;;
16775;SDS011;8505;49.456;8.164;2023-04-16T00:03:15;16.35;;;11.63;;
16775;SDS011;8505;49.456;8.164;2023-04-16T00:05:43;17.55;;;12.80;;
16775;SDS011;8505;49.456;8.164;2023-04-16T00:08:11;17.58;;;12.13;;
16775;SDS011;8505;49.456;8.164;2023-04-16T00:10:39;18.88;;;13.23;;
16775;SDS011;8505;49.456;8.164;2023-04-16T00:13:07;17.60;;;11.73;;
16775;SDS011;8505;49.456;8.164;2023-04-16T00:15:36;21.83;;;14.32;;
16775;SDS011;8505;49.456;8.164;2023-04-16T00:18:03;18.15;;;13.45;;
16775;SDS011;8505;49.456;8.164;2023-04-16T00:20:31;15.90;;;11.30;;
16775;SDS011;8505;49.456;8.164;2023-04-16T00:22:59;16.40;;;12.07;;
16775;SDS011;8505;49.456;8.164;2023-04-16T00:25:26;20.13;;;13.10;;
16775;SDS011;8505;49.456;8.164;2023-04-16T00:27:55;17.13;;;12.32;;
16775;SDS011;8505;49.456;8.164;2023-04-16T00:30:22;16.92;;;11.73;;
16775;SDS011;8505;49.456;8.164;2023-04-16T00:32:51;16.42;;;12.40;;
16775;SDS011;8505;49.456;8.164;2023-04-16T00:35:19;17.40;;;12.23;;
16775;SDS011;8505;49.456;8.164;2023-04-16T00:37:47;16.75;;;12.70;;
16775;SDS011;8505;49.456;8.164;2023-04-16T00:40:15;18.90;;;12.30;;
16775;SDS011;8505;49.456;8.164;2023-04-16T00:42:42;16.88;;;12.18;;
16775;SDS011;8505;49.456;8.164;2023-04-16T00:45:11;16.55;;;11.85;;
16775;SDS011;8505;49.456;8.164;2023-04-16T00:47:39;17.42;;;11.52;;
16775;SDS011;8505;49.456;8.164;2023-04-16T00:50:08;17.48;;;11.77;;
16775;SDS011;8505;49.456;8.164;2023-04-16T00:52:37;17.67;;;12.15;;
16775;SDS011;8505;49.456;8.164;2023-04-16T00:55:06;16.25;;;11.32;;
16775;SDS011;8505;49.456;8.164;2023-04-16T00:57:38;16.88;;;11.75;;
16775;SDS011;8505;49.456;8.164;2023-04-16T01:00:06;15.10;;;11.30;;
16775;SDS011;8505;49.456;8.164;2023-04-16T01:02:35;15.15;;;10.77;;
16775;SDS011;8505;49.456;8.164;2023-04-16T01:05:03;16.40;;;11.05;;
16775;SDS011;8505;49.456;8.164;2023-04-16T01:07:33;15.35;;;11.48;;
16775;SDS011;8505;49.456;8.164;2023-04-16T01:10:01;15.68;;;11.35;;
16775;SDS011;8505;49.456;8.164;2023-04-16T01:12:29;15.10;;;10.95;;
16775;SDS011;8505;49.456;8.164;2023-04-16T01:14:57;15.45;;;11.20;;
16775;SDS011;8505;49.456;8.164;2023-04-16T01:17:25;15.85;;;11.27;;
16775;SDS011;8505;49.456;8.164;2023-04-16T01:19:56;15.10;;;10.70;;
16775;SDS011;8505;49.456;8.164;2023-04-16T01:22:26;15.63;;;10.47;;
16775;SDS011;8505;49.456;8.164;2023-04-16T01:24:54;16.10;;;11.70;;
16775;SDS011;8505;49.456;8.164;2023-04-16T01:27:22;15.57;;;11.07;;
16775;SDS011;8505;49.456;8.164;2023-04-16T01:29:50;16.17;;;11.30;;
16775;SDS011;8505;49.456;8.164;2023-04-16T01:32:17;16.05;;;10.80;;
16775;SDS011;8505;49.456;8.164;2023-04-16T01:34:46;16.15;;;11.10;;
16775;SDS011;8505;49.456;8.164;2023-04-16T01:37:14;15.43;;;10.88;;
16775;SDS011;8505;49.456;8.164;2023-04-16T01:39:45;14.63;;;10.38;;
16775;SDS011;8505;49.456;8.164;2023-04-16T01:42:13;15.35;;;10.73;;
16775;SDS011;8505;49.456;8.164;2023-04-16T01:44:41;16.45;;;11.05;;
16775;SDS011;8505;49.456;8.164;2023-04-16T01:47:09;16.57;;;10.70;;
16775;SDS011;8505;49.456;8.164;2023-04-16T01:49:37;15.82;;;10.70;;
16775;SDS011;8505;49.456;8.164;2023-04-16T01:52:04;16.77;;;11.57;;
16775;SDS011;8505;49.456;8.164;2023-04-16T01:54:33;17.15;;;11.25;;
16775;SDS011;8505;49.456;8.164;2023-04-16T01:57:02;15.83;;;11.63;;
16775;SDS011;8505;49.456;8.164;2023-04-16T01:59:30;15.60;;;11.25;;
16775;SDS011;8505;49.456;8.164;2023-04-16T02:01:58;16.23;;;11.47;;
16775;SDS011;8505;49.456;8.164;2023-04-16T02:04:29;16.45;;;11.65;;
16775;SDS011;8505;49.456;8.164;2023-04-16T02:06:57;16.80;;;11.98;;
16775;SDS011;8505;49.456;8.164;2023-04-16T02:09:25;18.37;;;11.97;;
16775;SDS011;8505;49.456;8.164;2023-04-16T02:11:53;16.50;;;11.45;;
16775;SDS011;8505;49.456;8.164;2023-04-16T02:14:22;17.83;;;11.88;;
16775;SDS011;8505;49.456;8.164;2023-04-16T02:16:50;16.10;;;11.65;;
16775;SDS011;8505;49.456;8.164;2023-04-16T02:19:18;16.83;;;11.80;;
16775;SDS011;8505;49.456;8.164;2023-04-16T02:21:47;18.02;;;12.60;;
16775;SDS011;8505;49.456;8.164;2023-04-16T02:24:14;18.00;;;12.45;;
16775;SDS011;8505;49.456;8.164;2023-04-16T02:26:42;18.90;;;12.18;;
16775;SDS011;8505;49.456;8.164;2023-04-16T02:29:10;17.67;;;12.02;;
16775;SDS011;8505;49.456;8.164;2023-04-16T02:31:39;18.03;;;12.47;;
16775;SDS011;8505;49.456;8.164;2023-04-16T02:34:07;18.25;;;12.23;;
16775;SDS011;8505;49.456;8.164;2023-04-16T02:36:34;18.20;;;12.10;;
16775;SDS011;8505;49.456;8.164;2023-04-16T02:39:03;21.10;;;13.40;;
16775;SDS011;8505;49.456;8.164;2023-04-16T02:41:31;19.63;;;13.35;;
16775;SDS011;8505;49.456;8.164;2023-04-16T02:43:59;19.08;;;12.80;;
16775;SDS011;8505;49.456;8.164;2023-04-16T02:46:27;17.45;;;12.55;;
16775;SDS011;8505;49.456;8.164;2023-04-16T02:48:56;19.48;;;12.95;;
16775;SDS011;8505;49.456;8.164;2023-04-16T02:51:23;19.17;;;13.18;;
16775;SDS011;8505;49.456;8.164;2023-04-16T02:53:51;18.65;;;13.20;;
16775;SDS011;8505;49.456;8.164;2023-04-16T02:56:19;18.73;;;12.50;;
16775;SDS011;8505;49.456;8.164;2023-04-16T02:58:46;18.55;;;11.23;;
16775;SDS011;8505;49.456;8.164;2023-04-16T03:01:14;19.33;;;12.80;;
16775;SDS011;8505;49.456;8.164;2023-04-16T03:03:43;19.40;;;12.93;;
16775;SDS011;8505;49.456;8.164;2023-04-16T03:06:12;18.80;;;12.82;;
16775;SDS011;8505;49.456;8.164;2023-04-16T03:08:40;19.98;;;12.77;;
16775;SDS011;8505;49.456;8.164;2023-04-16T03:11:07;17.67;;;12.30;;
16775;SDS011;8505;49.456;8.164;2023-04-16T03:13:35;19.10;;;12.40;;
16775;SDS011;8505;49.456;8.164;2023-04-16T03:16:03;19.50;;;12.43;;
16775;SDS011;8505;49.456;8.164;2023-04-16T03:18:31;18.95;;;12.50;;
16775;SDS011;8505;49.456;8.164;2023-04-16T03:20:59;16.83;;;12.00;;
16775;SDS011;8505;49.456;8.164;2023-04-16T03:23:28;17.83;;;12.27;;
16775;SDS011;8505;49.456;8.164;2023-04-16T03:25:55;18.40;;;12.35;;
16775;SDS011;8505;49.456;8.164;2023-04-16T03:28:23;18.63;;;12.83;;
16775;SDS011;8505;49.456;8.164;2023-04-16T03:30:52;19.75;;;12.45;;
16775;SDS011;8505;49.456;8.164;2023-04-16T03:33:20;18.80;;;12.57;;
16775;SDS011;8505;49.456;8.164;2023-04-16T03:35:53;19.45;;;12.77;;
16775;SDS011;8505;49.456;8.164;2023-04-16T03:38:22;19.00;;;12.43;;
16775;SDS011;8505;49.456;8.164;2023-04-16T03:40:51;22.92;;;14.02;;
16775;SDS011;8505;49.456;8.164;2023-04-16T03:43:19;23.33;;;13.75;;
16775;SDS011;8505;49.456;8.164;2023-04-16T03:45:47;24.25;;;14.10;;
16775;SDS011;8505;49.456;8.164;2023-04-16T03:48:14;21.90;;;14.02;;
16775;SDS011;8505;49.456;8.164;2023-04-16T03:50:44;23.13;;;14.23;;
16775;SDS011;8505;49.456;8.164;2023-04-16T03:53:13;23.33;;;14.52;;
16775;SDS011;8505;49.456;8.164;2023-04-16T03:55:41;25.02;;;15.20;;
16775;SDS011;8505;49.456;8.164;2023-04-16T03:58:10;22.05;;;14.20;;
16775;SDS011;8505;49.456;8.164;2023-04-16T04:00:40;24.80;;;14.73;;
16775;SDS011;8505;49.456;8.164;2023-04-16T04:03:08;23.63;;;14.63;;
16775;SDS011;8505;49.456;8.164;2023-04-16T04:05:37;23.23;;;14.77;;
16775;SDS011;8505;49.456;8.164;2023-04-16T04:08:06;23.90;;;15.00;;
16775;SDS011;8505;49.456;8.164;2023-04-16T04:10:34;22.35;;;13.90;;
16775;SDS011;8505;49.456;8.164;2023-04-16T04:13:02;24.35;;;14.55;;
16775;SDS011;8505;49.456;8.164;2023-04-16T04:15:33;22.17;;;13.68;;
16775;SDS011;8505;49.456;8.164;2023-04-16T04:18:01;19.67;;;13.00;;
16775;SDS011;8505;49.456;8.164;2023-04-16T04:20:29;22.08;;;14.25;;
16775;SDS011;8505;49.456;8.164;2023-04-16T04:22:56;22.57;;;14.17;;
16775;SDS011;8505;49.456;8.164;2023-04-16T04:25:25;22.15;;;13.70;;
16775;SDS011;8505;49.456;8.164;2023-04-16T04:27:52;21.20;;;13.48;;
16775;SDS011;8505;49.456;8.164;2023-04-16T04:30:20;21.17;;;13.07;;
16775;SDS011;8505;49.456;8.164;2023-04-16T04:32:49;19.80;;;12.93;;
16775;SDS011;8505;49.456;8.164;2023-04-16T04:35:17;18.88;;;12.18;;
16775;SDS011;8505;49.456;8.164;2023-04-16T04:37:45;19.83;;;12.48;;
16775;SDS011;8505;49.456;8.164;2023-04-16T04:40:13;17.65;;;11.32;;
16775;SDS011;8505;49.456;8.164;2023-04-16T04:42:41;19.52;;;11.52;;
16775;SDS011;8505;49.456;8.164;2023-04-16T04:45:09;18.45;;;10.80;;
16775;SDS011;8505;49.456;8.164;2023-04-16T04:47:37;17.75;;;11.32;;
16775;SDS011;8505;49.456;8.164;2023-04-16T04:50:07;18.03;;;11.33;;
16775;SDS011;8505;49.456;8.164;2023-04-16T04:52:36;19.90;;;11.43;;
16775;SDS011;8505;49.456;8.164;2023-04-16T04:55:04;17.35;;;10.95;;
16775;SDS011;8505;49.456;8.164;2023-04-16T04:57:32;17.08;;;10.93;;
16775;SDS011;8505;49.456;8.164;2023-04-16T05:00:00;18.05;;;10.95;;
16775;SDS011;8505;49.456;8.164;2023-04-16T05:02:29;16.13;;;10.52;;
16775;SDS011;8505;49.456;8.164;2023-04-16T05:04:57;16.45;;;10.35;;
16775;SDS011;8505;49.456;8.164;2023-04-16T05:07:26;18.02;;;9.82;;
16775;SDS011;8505;49.456;8.164;2023-04-16T05:09:53;16.98;;;10.90;;
16775;SDS011;8505;49.456;8.164;2023-04-16T05:12:21;15.73;;;10.10;;
16775;SDS011;8505;49.456;8.164;2023-04-16T05:14:49;16.17;;;9.98;;
16775;SDS011;8505;49.456;8.164;2023-04-16T05:17:17;16.33;;;9.98;;
16775;SDS011;8505;49.456;8.164;2023-04-16T05:19:45;17.20;;;10.38;;
16775;SDS011;8505;49.456;8.164;2023-04-16T05:22:12;16.38;;;10.25;;
16775;SDS011;8505;49.456;8.164;2023-04-16T05:24:45;17.55;;;10.48;;
16775;SDS011;8505;49.456;8.164;2023-04-16T05:27:13;15.40;;;9.70;;
16775;SDS011;8505;49.456;8.164;2023-04-16T05:29:41;16.13;;;10.05;;
16775;SDS011;8505;49.456;8.164;2023-04-16T05:32:08;15.97;;;10.07;;
16775;SDS011;8505;49.456;8.164;2023-04-16T05:34:36;16.40;;;10.50;;
16775;SDS011;8505;49.456;8.164;2023-04-16T05:37:04;14.98;;;9.60;;
16775;SDS011;8505;49.456;8.164;2023-04-16T05:39:31;16.33;;;10.32;;
16775;SDS011;8505;49.456;8.164;2023-04-16T05:42:00;15.80;;;9.63;;
16775;SDS011;8505;49.456;8.164;2023-04-16T05:44:28;15.83;;;9.90;;
16775;SDS011;8505;49.456;8.164;2023-04-16T05:46:56;15.80;;;9.48;;
16775;SDS011;8505;49.456;8.164;2023-04-16T05:49:25;16.25;;;9.70;;
16775;SDS011;8505;49.456;8.164;2023-04-16T05:51:53;16.00;;;10.27;;
16775;SDS011;8505;49.456;8.164;2023-04-16T05:54:20;15.05;;;9.63;;
16775;SDS011;8505;49.456;8.164;2023-04-16T05:56:48;15.45;;;9.60;;
16775;SDS011;8505;49.456;8.164;2023-04-16T05:59:17;14.53;;;9.27;;
16775;SDS011;8505;49.456;8.164;2023-04-16T06:01:45;13.50;;;9.20;;
16775;SDS011;8505;49.456;8.164;2023-04-16T06:04:13;14.63;;;9.55;;
16775;SDS011;8505;49.456;8.164;2023-04-16T06:06:41;17.13;;;11.05;;
16775;SDS011;8505;49.456;8.164;2023-04-16T06:09:08;36.25;;;20.13;;
16775;SDS011;8505;49.456;8.164;2023-04-16T06:11:37;18.92;;;11.40;;
16775;SDS011;8505;49.456;8.164;2023-04-16T06:14:04;17.70;;;11.57;;
16775;SDS011;8505;49.456;8.164;2023-04-16T06:16:34;13.70;;;8.80;;
16775;SDS011;8505;49.456;8.164;2023-04-16T06:19:01;12.90;;;8.20;;
16775;SDS011;8505;49.456;8.164;2023-04-16T06:21:29;13.80;;;8.57;;
16775;SDS011;8505;49.456;8.164;2023-04-16T06:23:58;19.55;;;13.05;;
16775;SDS011;8505;49.456;8.164;2023-04-16T06:26:25;16.90;;;11.18;;
16775;SDS011;8505;49.456;8.164;2023-04-16T06:28:53;13.90;;;8.93;;
16775;SDS011;8505;49.456;8.164;2023-04-16T06:31:21;20.27;;;12.63;;
16775;SDS011;8505;49.456;8.164;2023-04-16T06:33:50;14.70;;;9.15;;
16775;SDS011;8505;49.456;8.164;2023-04-16T06:36:18;24.38;;;13.85;;
16775;SDS011;8505;49.456;8.164;2023-04-16T06:38:46;18.08;;;10.95;;
16775;SDS011;8505;49.456;8.164;2023-04-16T06:41:13;14.53;;;9.50;;
16775;SDS011;8505;49.456;8.164;2023-04-16T06:43:41;14.07;;;8.90;;
16775;SDS011;8505;49.456;8.164;2023-04-16T06:46:10;14.50;;;8.32;;
16775;SDS011;8505;49.456;8.164;2023-04-16T06:48:37;13.43;;;8.80;;
16775;SDS011;8505;49.456;8.164;2023-04-16T06:51:07;13.95;;;9.10;;
16775;SDS011;8505;49.456;8.164;2023-04-16T06:53:35;14.00;;;8.75;;
16775;SDS011;8505;49.456;8.164;2023-04-16T06:56:04;13.10;;;8.40;;
16775;SDS011;8505;49.456;8.164;2023-04-16T06:58:32;12.90;;;8.50;;
16775;SDS011;8505;49.456;8.164;2023-04-16T07:01:00;13.95;;;8.63;;
16775;SDS011;8505;49.456;8.164;2023-04-16T07:03:29;13.82;;;8.77;;
16775;SDS011;8505;49.456;8.164;2023-04-16T07:05:57;14.95;;;9.02;;
16775;SDS011;8505;49.456;8.164;2023-04-16T07:08:27;14.95;;;9.30;;
16775;SDS011;8505;49.456;8.164;2023-04-16T07:10:54;14.73;;;9.50;;
16775;SDS011;8505;49.456;8.164;2023-04-16T07:13:22;14.55;;;9.50;;
16775;SDS011;8505;49.456;8.164;2023-04-16T07:15:51;13.45;;;8.98;;
16775;SDS011;8505;49.456;8.164;2023-04-16T07:18:18;14.75;;;8.77;;
16775;SDS011;8505;49.456;8.164;2023-04-16T07:20:46;14.52;;;9.02;;
16775;SDS011;8505;49.456;8.164;2023-04-16T07:23:14;14.15;;;8.98;;
16775;SDS011;8505;49.456;8.164;2023-04-16T07:25:43;15.45;;;9.18;;
16775;SDS011;8505;49.456;8.164;2023-04-16T07:28:11;14.27;;;8.68;;
16775;SDS011;8505;49.456;8.164;2023-04-16T07:30:41;14.32;;;9.32;;
16775;SDS011;8505;49.456;8.164;2023-04-16T07:33:10;14.23;;;9.07;;
16775;SDS011;8505;49.456;8.164;2023-04-16T07:35:38;14.70;;;9.00;;
16775;SDS011;8505;49.456;8.164;2023-04-16T07:38:06;14.10;;;8.75;;
16775;SDS011;8505;49.456;8.164;2023-04-16T07:40:35;14.10;;;8.97;;
16775;SDS011;8505;49.456;8.164;2023-04-16T07:43:04;14.20;;;8.50;;
16775;SDS011;8505;49.456;8.164;2023-04-16T07:45:32;15.55;;;9.43;;
16775;SDS011;8505;49.456;8.164;2023-04-16T07:48:00;14.23;;;8.80;;
16775;SDS011;8505;49.456;8.164;2023-04-16T07:50:28;16.00;;;9.15;;
16775;SDS011;8505;49.456;8.164;2023-04-16T07:52:55;13.18;;;8.48;;
16775;SDS011;8505;49.456;8.164;2023-04-16T07:55:23;14.33;;;8.73;;
16775;SDS011;8505;49.456;8.164;2023-04-16T07:57:51;14.75;;;9.00;;
16775;SDS011;8505;49.456;8.164;2023-04-16T08:00:21;15.57;;;9.02;;
16775;SDS011;8505;49.456;8.164;2023-04-16T08:02:49;15.13;;;8.82;;
16775;SDS011;8505;49.456;8.164;2023-04-16T08:05:17;14.52;;;8.13;;
16775;SDS011;8505;49.456;8.164;2023-04-16T08:07:46;15.68;;;8.68;;
16775;SDS011;8505;49.456;8.164;2023-04-16T08:10:14;14.40;;;8.88;;
16775;SDS011;8505;49.456;8.164;2023-04-16T08:12:42;13.18;;;8.43;;
16775;SDS011;8505;49.456;8.164;2023-04-16T08:15:10;13.38;;;8.30;;
16775;SDS011;8505;49.456;8.164;2023-04-16T08:17:40;13.98;;;8.27;;
16775;SDS011;8505;49.456;8.164;2023-04-16T08:20:08;13.43;;;8.30;;
16775;SDS011;8505;49.456;8.164;2023-04-16T08:22:40;14.98;;;8.23;;
16775;SDS011;8505;49.456;8.164;2023-04-16T08:25:09;13.73;;;8.38;;
16775;SDS011;8505;49.456;8.164;2023-04-16T08:27:37;12.85;;;7.82;;
16775;SDS011;8505;49.456;8.164;2023-04-16T08:30:05;15.10;;;8.77;;
16775;SDS011;8505;49.456;8.164;2023-04-16T08:32:34;13.63;;;8.23;;
16775;SDS011;8505;49.456;8.164;2023-04-16T08:35:03;13.80;;;8.57;;
16775;SDS011;8505;49.456;8.164;2023-04-16T08:37:31;13.10;;;8.30;;
16775;SDS011;8505;49.456;8.164;2023-04-16T08:39:59;13.13;;;8.32;;
16775;SDS011;8505;49.456;8.164;2023-04-16T08:42:29;14.10;;;8.60;;
16775;SDS011;8505;49.456;8.164;2023-04-16T08:45:05;13.18;;;7.82;;
16775;SDS011;8505;49.456;8.164;2023-04-16T08:47:34;13.00;;;8.25;;
16775;SDS011;8505;49.456;8.164;2023-04-16T08:50:04;13.57;;;8.18;;
16775;SDS011;8505;49.456;8.164;2023-04-16T08:52:35;19.02;;;11.23;;
16775;SDS011;8505;49.456;8.164;2023-04-16T08:55:07;17.90;;;11.50;;
16775;SDS011;8505;49.456;8.164;2023-04-16T08:57:43;19.55;;;11.93;;
16775;SDS011;8505;49.456;8.164;2023-04-16T09:00:23;12.68;;;8.05;;
16775;SDS011;8505;49.456;8.164;2023-04-16T09:02:51;12.45;;;8.45;;
16775;SDS011;8505;49.456;8.164;2023-04-16T09:05:22;12.60;;;7.93;;
16775;SDS011;8505;49.456;8.164;2023-04-16T09:07:51;12.13;;;7.80;;
16775;SDS011;8505;49.456;8.164;2023-04-16T09:10:20;11.55;;;7.45;;
16775;SDS011;8505;49.456;8.164;2023-04-16T09:12:48;14.50;;;8.57;;
16775;SDS011;8505;49.456;8.164;2023-04-16T09:15:16;13.38;;;8.50;;
16775;SDS011;8505;49.456;8.164;2023-04-16T09:17:47;12.38;;;7.78;;
16775;SDS011;8505;49.456;8.164;2023-04-16T09:20:15;12.70;;;8.43;;
16775;SDS011;8505;49.456;8.164;2023-04-16T09:22:44;13.02;;;8.65;;
16775;SDS011;8505;49.456;8.164;2023-04-16T09:25:12;13.65;;;8.82;;
16775;SDS011;8505;49.456;8.164;2023-04-16T09:27:42;15.35;;;8.90;;
16775;SDS011;8505;49.456;8.164;2023-04-16T09:30:23;13.05;;;8.13;;
16775;SDS011;8505;49.456;8.164;2023-04-16T09:33:10;13.10;;;8.55;;
16775;SDS011;8505;49.456;8.164;2023-04-16T09:35:44;13.13;;;8.47;;
16775;SDS011;8505;49.456;8.164;2023-04-16T09:38:14;13.60;;;8.50;;
16775;SDS011;8505;49.456;8.164;2023-04-16T09:40:43;12.77;;;8.10;;
16775;SDS011;8505;49.456;8.164;2023-04-16T09:43:13;13.07;;;8.40;;
16775;SDS011;8505;49.456;8.164;2023-04-16T09:45:47;12.38;;;8.10;;
16775;SDS011;8505;49.456;8.164;2023-04-16T09:48:26;12.30;;;7.88;;
16775;SDS011;8505;49.456;8.164;2023-04-16T09:50:55;11.80;;;7.83;;
16775;SDS011;8505;49.456;8.164;2023-04-16T09:53:25;12.25;;;8.30;;
16775;SDS011;8505;49.456;8.164;2023-04-16T09:55:55;13.25;;;8.25;;
16775;SDS011;8505;49.456;8.164;2023-04-16T09:58:23;11.73;;;7.65;;
16775;SDS011;8505;49.456;8.164;2023-04-16T10:00:54;10.98;;;7.43;;
16775;SDS011;8505;49.456;8.164;2023-04-16T10:03:27;13.00;;;7.47;;
16775;SDS011;8505;49.456;8.164;2023-04-16T10:05:58;12.15;;;7.60;;
16775;SDS011;8505;49.456;8.164;2023-04-16T10:08:28;12.18;;;7.53;;
16775;SDS011;8505;49.456;8.164;2023-04-16T10:10:56;11.10;;;7.32;;
16775;SDS011;8505;49.456;8.164;2023-04-16T10:13:24;11.73;;;7.47;;
16775;SDS011;8505;49.456;8.164;2023-04-16T10:15:54;12.52;;;7.85;;
16775;SDS011;8505;49.456;8.164;2023-04-16T10:18:22;12.13;;;7.55;;
16775;SDS011;8505;49.456;8.164;2023-04-16T10:20:50;12.23;;;7.80;;
16775;SDS011;8505;49.456;8.164;2023-04-16T10:23:18;12.10;;;7.50;;
16775;SDS011;8505;49.456;8.164;2023-04-16T10:25:48;10.88;;;7.30;;
16775;SDS011;8505;49.456;8.164;2023-04-16T10:28:16;10.35;;;7.00;;
16775;SDS011;8505;49.456;8.164;2023-04-16T10:30:46;12.18;;;7.35;;
16775;SDS011;8505;49.456;8.164;2023-04-16T10:33:19;11.98;;;7.75;;
16775;SDS011;8505;49.456;8.164;2023-04-16T10:35:48;13.52;;;8.50;;
16775;SDS011;8505;49.456;8.164;2023-04-16T10:38:32;12.55;;;8.50;;
16775;SDS011;8505;49.456;8.164;2023-04-16T10:41:02;12.77;;;8.27;;
16775;SDS011;8505;49.456;8.164;2023-04-16T10:43:32;12.65;;;7.88;;
16775;SDS011;8505;49.456;8.164;2023-04-16T10:46:17;13.07;;;7.97;;
16775;SDS011;8505;49.456;8.164;2023-04-16T10:48:47;13.18;;;8.27;;
16775;SDS011;8505;49.456;8.164;2023-04-16T10:51:22;12.73;;;8.10;;
16775;SDS011;8505;49.456;8.164;2023-04-16T10:53:53;15.18;;;8.82;;
16775;SDS011;8505;49.456;8.164;2023-04-16T10:56:23;14.73;;;8.60;;
16775;SDS011;8505;49.456;8.164;2023-04-16T10:58:52;12.98;;;8.30;;
16775;SDS011;8505;49.456;8.164;2023-04-16T11:01:28;15.38;;;8.75;;
16775;SDS011;8505;49.456;8.164;2023-04-16T11:03:58;15.82;;;9.38;;
16775;SDS011;8505;49.456;8.164;2023-04-16T11:06:28;18.42;;;10.80;;
16775;SDS011;8505;49.456;8.164;2023-04-16T11:08:57;17.77;;;10.73;;
16775;SDS011;8505;49.456;8.164;2023-04-16T11:11:26;18.13;;;11.45;;
16775;SDS011;8505;49.456;8.164;2023-04-16T11:14:03;19.65;;;11.98;;
16775;SDS011;8505;49.456;8.164;2023-04-16T11:16:31;26.55;;;15.02;;
16775;SDS011;8505;49.456;8.164;2023-04-16T11:18:59;31.70;;;18.95;;
16775;SDS011;8505;49.456;8.164;2023-04-16T11:21:27;29.63;;;17.35;;
16775;SDS011;8505;49.456;8.164;2023-04-16T11:23:57;38.88;;;23.02;;
16775;SDS011;8505;49.456;8.164;2023-04-16T11:26:26;24.85;;;14.18;;
16775;SDS011;8505;49.456;8.164;2023-04-16T11:28:56;22.60;;;14.63;;
16775;SDS011;8505;49.456;8.164;2023-04-16T11:31:25;42.33;;;25.02;;
16775;SDS011;8505;49.456;8.164;2023-04-16T11:33:54;31.80;;;18.63;;
16775;SDS011;8505;49.456;8.164;2023-04-16T11:36:22;36.35;;;20.10;;
16775;SDS011;8505;49.456;8.164;2023-04-16T11:38:59;23.15;;;14.55;;
16775;SDS011;8505;49.456;8.164;2023-04-16T11:41:30;29.50;;;18.27;;
16775;SDS011;8505;49.456;8.164;2023-04-16T11:43:58;47.87;;;31.07;;
16775;SDS011;8505;49.456;8.164;2023-04-16T11:46:36;64.22;;;39.15;;
16775;SDS011;8505;49.456;8.164;2023-04-16T11:49:04;62.15;;;38.10;;
16775;SDS011;8505;49.456;8.164;2023-04-16T11:51:31;29.60;;;17.70;;
16775;SDS011;8505;49.456;8.164;2023-04-16T11:53:59;35.97;;;21.90;;
16775;SDS011;8505;49.456;8.164;2023-04-16T11:56:27;28.77;;;18.00;;
16775;SDS011;8505;49.456;8.164;2023-04-16T11:59:10;48.72;;;29.20;;
16775;SDS011;8505;49.456;8.164;2023-04-16T12:01:39;30.08;;;18.60;;
16775;SDS011;8505;49.456;8.164;2023-04-16T12:04:07;54.33;;;33.75;;
16775;SDS011;8505;49.456;8.164;2023-04-16T12:06:35;34.25;;;20.95;;
16775;SDS011;8505;49.456;8.164;2023-04-16T12:11:49;23.40;;;14.07;;
16775;SDS011;8505;49.456;8.164;2023-04-16T12:14:18;22.73;;;14.10;;
16775;SDS011;8505;49.456;8.164;2023-04-16T12:16:46;36.55;;;18.52;;
16775;SDS011;8505;49.456;8.164;2023-04-16T12:19:14;26.05;;;15.32;;
16775;SDS011;8505;49.456;8.164;2023-04-16T12:21:43;28.27;;;17.20;;
16775;SDS011;8505;49.456;8.164;2023-04-16T12:24:12;25.30;;;15.50;;
16775;SDS011;8505;49.456;8.164;2023-04-16T12:26:42;25.07;;;14.93;;
16775;SDS011;8505;49.456;8.164;2023-04-16T12:29:16;28.25;;;17.17;;
16775;SDS011;8505;49.456;8.164;2023-04-16T12:31:47;23.38;;;14.40;;
16775;SDS011;8505;49.456;8.164;2023-04-16T12:34:16;24.90;;;14.70;;
16775;SDS011;8505;49.456;8.164;2023-04-16T12:36:44;25.27;;;14.75;;
16775;SDS011;8505;49.456;8.164;2023-04-16T12:39:13;24.10;;;14.57;;
16775;SDS011;8505;49.456;8.164;2023-04-16T12:41:42;26.02;;;15.88;;
16775;SDS011;8505;49.456;8.164;2023-04-16T12:44:11;24.35;;;14.38;;
16775;SDS011;8505;49.456;8.164;2023-04-16T12:46:44;22.98;;;14.75;;
16775;SDS011;8505;49.456;8.164;2023-04-16T12:49:12;24.90;;;14.50;;
16775;SDS011;8505;49.456;8.164;2023-04-16T12:51:40;25.88;;;15.10;;
16775;SDS011;8505;49.456;8.164;2023-04-16T12:54:07;24.77;;;15.32;;
16775;SDS011;8505;49.456;8.164;2023-04-16T12:56:35;22.73;;;13.52;;
16775;SDS011;8505;49.456;8.164;2023-04-16T12:59:03;24.15;;;14.88;;
16775;SDS011;8505;49.456;8.164;2023-04-16T13:01:31;25.23;;;14.32;;
16775;SDS011;8505;49.456;8.164;2023-04-16T13:04:02;25.00;;;14.68;;
16775;SDS011;8505;49.456;8.164;2023-04-16T13:06:31;24.20;;;14.80;;
16775;SDS011;8505;49.456;8.164;2023-04-16T13:08:59;24.67;;;15.20;;
16775;SDS011;8505;49.456;8.164;2023-04-16T13:11:27;25.60;;;15.15;;
16775;SDS011;8505;49.456;8.164;2023-04-16T13:13:55;24.88;;;14.98;;
16775;SDS011;8505;49.456;8.164;2023-04-16T13:16:22;23.58;;;15.23;;
16775;SDS011;8505;49.456;8.164;2023-04-16T13:18:51;25.65;;;15.15;;
16775;SDS011;8505;49.456;8.164;2023-04-16T13:21:20;25.77;;;15.20;;
16775;SDS011;8505;49.456;8.164;2023-04-16T13:23:49;25.95;;;15.73;;
16775;SDS011;8505;49.456;8.164;2023-04-16T13:26:16;27.05;;;16.27;;
16775;SDS011;8505;49.456;8.164;2023-04-16T13:28:44;26.33;;;15.93;;
16775;SDS011;8505;49.456;8.164;2023-04-16T13:31:12;29.60;;;17.75;;
16775;SDS011;8505;49.456;8.164;2023-04-16T13:33:41;27.83;;;16.73;;
16775;SDS011;8505;49.456;8.164;2023-04-16T13:36:09;57.53;;;31.67;;
16775;SDS011;8505;49.456;8.164;2023-04-16T13:38:39;29.10;;;17.30;;
16775;SDS011;8505;49.456;8.164;2023-04-16T13:41:07;36.75;;;21.23;;
16775;SDS011;8505;49.456;8.164;2023-04-16T13:43:35;59.30;;;30.77;;
16775;SDS011;8505;49.456;8.164;2023-04-16T13:46:03;64.95;;;33.33;;
16775;SDS011;8505;49.456;8.164;2023-04-16T13:48:31;45.17;;;24.55;;
16775;SDS011;8505;49.456;8.164;2023-04-16T13:50:59;86.07;;;44.42;;
16775;SDS011;8505;49.456;8.164;2023-04-16T13:53:26;40.83;;;23.88;;
16775;SDS011;8505;49.456;8.164;2023-04-16T13:55:55;47.78;;;27.45;;
16775;SDS011;8505;49.456;8.164;2023-04-16T13:58:23;42.58;;;26.10;;
16775;SDS011;8505;49.456;8.164;2023-04-16T14:00:52;32.00;;;19.45;;
16775;SDS011;8505;49.456;8.164;2023-04-16T14:03:20;34.15;;;20.15;;
16775;SDS011;8505;49.456;8.164;2023-04-16T14:05:48;48.30;;;30.70;;
16775;SDS011;8505;49.456;8.164;2023-04-16T14:08:15;36.15;;;21.70;;
16775;SDS011;8505;49.456;8.164;2023-04-16T14:10:43;33.87;;;20.57;;
16775;SDS011;8505;49.456;8.164;2023-04-16T14:13:12;33.10;;;19.85;;
16775;SDS011;8505;49.456;8.164;2023-04-16T14:15:40;32.55;;;19.20;;
16775;SDS011;8505;49.456;8.164;2023-04-16T14:18:08;32.60;;;19.35;;
16775;SDS011;8505;49.456;8.164;2023-04-16T14:20:35;34.40;;;19.73;;
16775;SDS011;8505;49.456;8.164;2023-04-16T14:23:05;33.97;;;20.10;;
16775;SDS011;8505;49.456;8.164;2023-04-16T14:25:33;34.47;;;20.38;;
16775;SDS011;8505;49.456;8.164;2023-04-16T14:28:01;34.42;;;20.38;;
16775;SDS011;8505;49.456;8.164;2023-04-16T14:30:29;34.37;;;19.80;;
16775;SDS011;8505;49.456;8.164;2023-04-16T14:32:57;33.63;;;20.83;;
16775;SDS011;8505;49.456;8.164;2023-04-16T14:35:25;34.85;;;21.40;;
16775;SDS011;8505;49.456;8.164;2023-04-16T14:37:53;35.45;;;21.20;;
16775;SDS011;8505;49.456;8.164;2023-04-16T14:40:20;38.23;;;22.90;;
16775;SDS011;8505;49.456;8.164;2023-04-16T14:42:48;40.53;;;24.17;;
16775;SDS011;8505;49.456;8.164;2023-04-16T14:45:16;39.08;;;23.55;;
16775;SDS011;8505;49.456;8.164;2023-04-16T14:47:45;35.78;;;20.75;;
16775;SDS011;8505;49.456;8.164;2023-04-16T14:50:13;38.28;;;22.75;;